Latest Weather Observations for Legendre Island

IDW60801

Issued at 2:35 pm WST Saturday 19 April 2014 (issued every 30 minutes, with the page automatically refreshed every 10 minutes)

About weather observations | Map of weather stations | Latest weather observations for WA | Other Formats
Station Details ID: 004095 Name: LEGENDRE ISLAND Lat: -20.36 Lon: 116.84 Height: 29.0 m
Data from the previous 72 hours. | See also: Recent months for locations in Western Australia
Date/Time
WST
Temp
°C
App
Temp
°C
Dew
Point
Rel
Hum
%
Delta-T
°C
Wind Press
QNH
hPa
Press
MSL
hPa
Rain
since 9 am
mm
Dir
 
Spd
km/h
Gust
km/h
Spd
kts
Gust
kts
19/02:30pm 31.6 34.1 20.2 50 7.6 NNE 7 9 4 5 1011.1 - -
19/02:00pm 32.2 34.3 20.1 48 8.0 NNE 9 13 5 7 1011.3 1011.1 -
19/01:30pm 31.4 33.5 19.4 49 7.9 NE 7 11 4 6 1011.6 - -
19/01:00pm 32.2 33.9 20.1 48 8.0 NNE 11 15 6 8 1012.0 1011.8 -
19/12:30pm 31.9 33.3 19.5 47 8.2 NNE 11 15 6 8 1012.4 - -
19/12:00pm 31.4 32.5 18.0 44 8.6 NE 9 11 5 6 1013.0 1012.9 -
19/11:30am 31.3 32.8 19.0 48 8.0 ENE 9 11 5 6 1013.5 - -
19/11:00am 32.0 31.8 16.7 40 9.7 E 13 17 7 9 1013.6 1013.5 -
19/10:30am 33.3 30.6 11.8 27 12.7 SE 17 24 9 13 1013.9 - -
19/10:00am 30.8 27.4 11.2 30 11.3 SSE 20 24 11 13 1014.2 1014.1 -
19/09:30am 31.1 28.1 13.8 34 10.4 SSE 22 28 12 15 1014.3 - -
19/09:00am 30.2 27.9 14.7 39 9.4 S 20 26 11 14 1014.4 1014.3 -
19/08:30am 29.7 28.4 14.7 40 9.1 SSE 15 20 8 11 1014.4 - -
19/08:00am 28.1 28.4 17.9 54 6.5 S 13 19 7 10 1014.3 1014.2 -
19/07:30am 26.5 27.2 18.9 63 4.9 SSE 13 19 7 10 1014.1 - -
19/07:00am 25.1 24.8 18.3 66 4.3 SSE 17 19 9 10 1013.8 1013.7 -
19/06:30am 24.3 23.9 18.0 68 4.0 SSE 17 19 9 10 1013.6 - -
19/06:00am 24.2 24.2 18.2 69 3.8 SSE 15 15 8 8 1013.4 1013.3 -
19/05:30am 23.9 24.3 19.0 74 3.1 S 15 17 8 9 1013.4 - -
19/05:00am 23.9 23.5 19.0 74 3.1 S 19 20 10 11 1013.3 1013.2 -
19/04:30am 24.3 24.9 19.4 74 3.1 SSE 15 17 8 9 1013.3 - -
19/04:00am 24.4 26.3 20.5 79 2.5 S 11 11 6 6 1013.4 1013.3 -
19/03:30am 24.2 25.4 20.7 81 2.3 S 15 17 8 9 1013.5 - -
19/03:00am 24.4 25.8 21.9 86 1.7 S 17 19 9 10 1013.6 1013.5 -
19/02:30am 24.4 26.1 22.3 88 1.4 S 17 19 9 10 1013.7 - -
19/02:00am 24.3 26.7 22.9 92 0.9 S 15 15 8 8 1013.7 1013.6 -
19/01:30am 24.8 27.2 24.3 97 0.3 S 19 22 10 12 1013.8 - -
19/01:00am 24.7 27.9 24.4 98 0.2 S 15 17 8 9 1013.9 1013.8 -
19/12:30am 24.9 28.9 24.4 97 0.3 S 11 13 6 7 1014.1 - -
19/12:00am 24.8 27.7 23.9 95 0.6 SSW 15 19 8 10 1014.3 1014.2 -
 
Date/Time
WST
Temp
°C
App
Temp
°C
Dew
Point
Rel
Hum
%
Delta-T
°C
Wind Press
QNH
hPa
Press
MSL
hPa
Rain
since 9 am
mm
Dir
 
Spd
km/h
Gust
km/h
Spd
kts
Gust
kts
18/11:30pm 25.7 29.9 23.4 87 1.6 SSW 7 9 4 5 1014.6 - -
18/11:00pm 27.0 31.4 22.8 78 2.8 NNW 4 4 2 2 1014.8 1014.7 -
18/10:30pm 26.9 31.2 22.7 78 2.8 NNW 4 6 2 3 1014.9 - -
18/10:00pm 27.4 31.2 22.8 76 3.1 N 7 9 4 5 1014.9 1014.8 -
18/09:30pm 27.5 31.0 22.9 76 3.1 N 9 11 5 6 1014.9 - -
18/09:00pm 27.6 30.7 22.8 75 3.3 N 11 11 6 6 1014.8 1014.7 -
18/08:30pm 27.7 30.8 22.2 72 3.7 N 9 11 5 6 1014.6 - -
18/08:00pm 27.8 30.9 22.1 71 3.8 N 9 9 5 5 1014.3 1014.2 -
18/07:30pm 28.0 30.8 21.5 67 4.3 N 9 11 5 6 1014.0 - -
18/07:00pm 28.2 30.7 21.7 68 4.4 N 11 13 6 7 1013.8 1013.7 -
18/06:30pm 28.4 30.6 21.2 65 4.8 N 11 13 6 7 1013.4 - -
18/06:00pm 28.6 30.5 21.4 65 4.8 N 13 15 7 8 1013.2 1013.1 -
18/05:30pm 29.2 31.0 21.2 62 5.3 N 13 13 7 7 1012.9 - -
18/05:00pm 29.1 30.7 20.0 58 6.0 N 11 13 6 7 1012.7 1012.6 -
18/04:30pm 30.6 32.0 19.6 51 7.2 NNE 11 13 6 7 1012.6 - -
18/04:00pm 31.0 32.5 19.7 51 7.4 NNE 11 13 6 7 1012.4 1012.2 -
18/03:30pm 30.9 31.8 19.3 50 7.6 NE 13 15 7 8 1012.2 - -
18/03:00pm 31.3 30.9 19.0 48 8.0 NE 19 20 10 11 1012.3 1012.1 -
18/02:30pm 31.4 30.3 18.7 46 8.2 ENE 22 24 12 13 1012.4 - -
18/02:00pm 31.9 31.3 18.8 45 8.5 ENE 20 24 11 13 1012.5 1012.4 -
18/01:30pm 32.1 30.8 17.2 41 9.5 ENE 20 24 11 13 1012.8 - -
18/01:00pm 32.0 30.8 17.5 42 9.3 E 20 22 11 12 1013.0 1012.9 -
18/12:30pm 31.6 30.0 16.4 40 9.6 E 20 22 11 12 1013.4 - -
18/12:00pm 31.6 30.6 17.9 44 8.8 E 20 22 11 12 1013.6 1013.5 -
18/11:30am 31.3 30.7 17.6 44 8.8 E 17 20 9 11 1014.1 - -
18/11:00am 32.1 30.1 15.6 37 10.3 ESE 20 24 11 13 1014.5 1014.4 -
18/10:30am 31.3 29.5 16.1 40 9.5 E 20 22 11 12 1014.7 - -
18/10:00am 31.9 30.1 15.4 37 10.2 ESE 19 22 10 12 1014.8 1014.7 -
18/09:30am 31.6 29.1 13.4 33 10.9 SE 19 24 10 13 1014.8 - -
18/09:00am 30.3 28.0 14.0 37 9.8 SE 19 22 10 12 1014.9 1014.8 -
18/08:30am 29.0 27.1 15.2 43 8.4 SE 19 22 10 12 1014.8 - -
18/08:00am 27.8 26.1 15.8 48 7.4 SSE 19 24 10 13 1014.7 1014.6 -
18/07:30am 26.6 24.5 16.2 52 6.4 SSE 22 28 12 15 1014.5 - -
18/07:00am 24.5 24.5 17.2 63 4.5 S 13 17 7 9 1014.3 1014.2 -
18/06:30am 24.4 24.1 17.4 65 4.4 SSE 15 19 8 10 1014.2 - -
18/06:00am 23.7 23.9 17.7 69 3.7 SSE 13 15 7 8 1014.1 1014.0 -
18/05:30am 24.3 26.2 19.8 76 2.9 SSE 9 11 5 6 1014.0 - -
18/05:00am 23.8 25.1 18.4 72 3.4 SSE 9 13 5 7 1013.9 1013.8 -
18/04:30am 24.1 26.0 19.8 77 2.8 S 9 11 5 6 1013.7 - -
18/04:00am 24.2 25.1 20.1 78 2.7 S 15 15 8 8 1013.7 1013.6 -
18/03:30am 24.2 24.6 19.9 77 2.8 S 17 19 9 10 1013.7 - -
18/03:00am 24.0 24.9 20.9 83 2.0 S 17 19 9 10 1013.6 1013.5 -
18/02:30am 24.4 26.1 22.3 88 1.4 S 17 20 9 11 1013.8 - -
18/02:00am 24.7 26.6 23.5 93 0.8 S 19 20 10 11 1013.9 1013.8 -
18/01:30am 24.6 27.1 23.2 92 0.9 S 15 19 8 10 1014.0 - -
18/01:00am 24.5 26.7 22.6 89 1.3 SSW 15 17 8 9 1014.3 1014.2 -
18/12:30am 25.2 27.7 19.8 72 3.5 NNW 6 13 3 7 1014.5 - -
18/12:00am 26.7 30.9 21.0 71 3.8 CALM 0 0 0 0 1014.8 1014.7 -
 
Date/Time
WST
Temp
°C
App
Temp
°C
Dew
Point
Rel
Hum
%
Delta-T
°C
Wind Press
QNH
hPa
Press
MSL
hPa
Rain
since 9 am
mm
Dir
 
Spd
km/h
Gust
km/h
Spd
kts
Gust
kts
17/11:30pm 27.4 30.7 21.4 70 4.0 N 6 7 3 4 1014.8 - -
17/11:00pm 27.7 30.6 21.0 67 4.4 N 7 9 4 5 1014.9 1014.8 -
17/10:30pm 27.7 30.4 21.3 68 4.3 N 9 13 5 7 1015.0 - -
17/10:00pm 27.9 30.3 22.2 71 3.8 N 13 13 7 7 1014.9 1014.8 -
17/09:30pm 27.9 30.0 21.7 69 4.2 N 13 15 7 8 1015.0 - -
17/09:00pm 28.1 29.9 21.1 65 4.7 N 13 15 7 8 1014.8 1014.7 -
17/08:30pm 28.2 29.2 21.0 65 4.8 N 17 19 9 10 1014.5 - -
17/08:00pm 28.1 29.8 21.6 68 4.4 N 15 17 8 9 1014.3 1014.2 -
17/07:30pm 28.1 29.3 21.4 67 4.5 N 17 20 9 11 1013.8 - -
17/07:00pm 28.3 28.8 21.1 65 4.8 N 20 22 11 12 1013.3 1013.2 -
17/06:30pm 28.4 28.8 20.7 63 5.1 NNE 19 22 10 12 1013.1 - -
17/06:00pm 28.5 29.0 20.8 63 5.1 NNE 19 22 10 12 1012.8 1012.7 -
17/05:30pm 29.1 29.8 20.5 59 5.7 NNE 17 20 9 11 1012.6 - -
17/05:00pm 29.7 29.8 19.1 53 6.9 NNE 17 19 9 10 1012.4 1012.2 -
17/04:30pm 30.2 30.0 18.6 49 7.5 NE 17 19 9 10 1012.2 - -
17/04:00pm 30.5 30.5 18.9 50 7.5 NE 17 19 9 10 1012.1 1011.9 -
17/03:30pm 31.0 30.8 18.4 47 8.1 ENE 17 19 9 10 1012.2 - -
17/03:00pm 31.7 31.4 18.3 45 8.7 ENE 17 20 9 11 1012.3 1012.1 -
17/02:30pm 31.8 31.8 18.0 43 8.9 E 15 17 8 9 1012.5 - -
17/02:00pm 32.0 31.0 17.5 42 9.3 E 19 20 10 11 1012.6 1012.5 -
17/01:30pm 31.7 30.0 17.2 42 9.2 E 22 24 12 13 1012.7 - -
17/01:00pm 31.6 28.7 16.0 39 9.7 ENE 26 30 14 16 1013.0 1012.9 -
17/12:30pm 31.3 28.0 16.1 40 9.5 E 28 32 15 17 1013.5 - -
17/12:00pm 31.1 27.1 15.1 38 9.8 E 30 35 16 19 1013.9 1013.8 -
17/11:30am 31.2 27.7 15.6 39 9.7 E 28 33 15 18 1014.3 - -
17/11:00am 31.9 30.7 17.4 42 9.3 ESE 20 26 11 14 1014.7 1014.6 -
17/10:30am 32.0 29.4 15.9 38 10.1 ESE 24 28 13 15 1014.9 - -
17/10:00am 30.7 27.8 15.2 39 9.5 ESE 24 30 13 16 1015.1 1015.0 -
17/09:30am 29.5 27.7 17.0 47 7.9 SE 22 28 12 15 1015.2 - -
17/09:00am 29.3 27.3 16.5 46 8.0 SE 22 30 12 16 1015.1 1015.0 -
17/08:30am 28.4 25.8 16.0 47 7.7 SSE 24 30 13 16 1014.9 - -
17/08:00am 27.4 25.9 17.6 55 6.2 SSE 22 30 12 16 1014.7 1014.6 -
17/07:30am 26.0 25.6 18.9 65 4.5 S 19 22 10 12 1014.5 - -
17/07:00am 25.3 23.6 18.0 64 4.6 S 24 28 13 15 1014.0 1013.9 -
17/06:30am 24.5 22.8 18.9 71 3.6 SSE 26 32 14 17 1013.8 - -
17/06:00am 23.6 23.1 18.7 74 3.1 SSE 19 24 10 13 1013.7 1013.6 -
17/05:30am 24.1 23.6 19.0 73 3.2 S 20 22 11 12 1013.7 - -
17/05:00am 24.4 24.1 19.2 73 3.3 S 19 20 10 11 1013.7 1013.6 -
17/04:30am 24.2 24.0 19.3 74 3.1 S 19 22 10 12 1013.5 - -
17/04:00am 24.8 24.0 19.2 71 3.6 S 22 26 12 14 1013.4 1013.3 -
17/03:30am 24.9 24.4 19.9 74 3.2 S 22 28 12 15 1013.5 - -
17/03:00am 24.6 25.2 20.3 77 2.8 S 17 20 9 11 1013.5 1013.4 -
17/02:30am 24.4 24.7 20.3 78 2.7 S 19 22 10 12 1013.8 - -
17/02:00am 24.6 25.5 20.9 80 2.4 S 17 20 9 11 1013.8 1013.7 -
17/01:30am 24.2 26.0 21.1 83 2.0 S 13 15 7 8 1013.9 - -
17/01:00am 24.4 26.3 21.3 83 2.0 S 13 15 7 8 1014.1 1014.0 -
17/12:30am 24.6 26.5 21.3 82 2.2 S 13 17 7 9 1014.1 - -
17/12:00am 25.2 27.6 18.9 68 4.0 N 4 11 2 6 1014.2 1014.1 -
 
Date/Time
WST
Temp
°C
App
Temp
°C
Dew
Point
Rel
Hum
%
Delta-T
°C
Wind Press
QNH
hPa
Press
MSL
hPa
Rain
since 9 am
mm
Dir
 
Spd
km/h
Gust
km/h
Spd
kts
Gust
kts
16/11:30pm 26.7 29.9 20.5 69 4.1 NW 4 4 2 2 1014.1 - -
16/11:00pm 27.0 30.5 19.6 64 4.8 CALM 0 2 0 1 1014.4 1014.3 -
16/10:30pm 27.8 28.9 19.6 61 5.3 N 13 17 7 9 1014.3 - -
16/10:00pm 27.9 27.9 20.2 63 5.1 N 20 22 11 12 1014.3 1014.2 -
16/09:30pm 27.9 28.5 20.2 63 5.1 N 17 19 9 10 1014.1 - -
16/09:00pm 28.0 28.3 20.3 63 5.1 N 19 20 10 11 1013.9 1013.8 -
16/08:30pm 28.1 28.4 19.6 60 5.5 N 17 20 9 11 1013.7 - -
16/08:00pm 28.3 28.3 19.0 57 6.0 N 17 20 9 11 1013.4 1013.3 -
16/07:30pm 28.4 27.6 17.9 53 6.7 N 19 20 10 11 1012.8 - -
16/07:00pm 28.2 27.9 18.3 55 6.3 N 17 20 9 11 1012.6 1012.5 -
16/06:30pm 28.3 27.9 19.0 57 6.0 N 19 22 10 12 1012.4 - -
16/06:00pm 28.5 27.4 18.6 55 6.4 NNE 22 26 12 14 1012.2 1012.0 -
16/05:30pm 28.8 27.8 18.9 55 6.4 NNE 22 26 12 14 1011.9 - -
16/05:00pm 29.2 27.1 18.0 51 7.2 NNE 26 28 14 15 1011.6 1011.4 -
16/04:30pm 29.6 27.9 18.1 50 7.4 NNE 24 28 13 15 1011.6 - -
16/04:00pm 30.2 28.2 17.3 46 8.2 NNE 24 28 13 15 1011.6 1011.4 -
16/03:30pm 30.4 28.2 16.8 44 8.6 NE 24 28 13 15 1011.6 - -
16/03:00pm 30.7 29.0 18.1 47 8.1 NE 24 28 13 15 1011.8 1011.6 -

Other Formats:

Comma delimited format used in spreadsheet applications
http://www.bom.gov.au/fwo/IDW60801/IDW60801.94307.axf

JavaScript Object Notation format (JSON) in row-major order
http://www.bom.gov.au/fwo/IDW60801/IDW60801.94307.json